Time,TemperatureF,DewpointF,PressureIn,WindDirection,WindDirectionDegrees,WindSpeedMPH,WindSpeedGustMPH,Humidity,HourlyPrecipIn,Conditions,Clouds,dailyrainin,SoftwareType,DateUTC
2013-09-22 00:00:00,50.5,39.2,29.00,ENE,76,3.6,5.4,65,0.00,,---,0.00,VWS V14.01,2013-09-22 04:00:00,
2013-09-22 00:01:00,50.5,39.6,29.00,East,101,3.1,5.4,66,0.00,,---,0.00,VWS V14.01,2013-09-22 04:01:00,
2013-09-22 00:02:00,50.5,39.6,29.00,ESE,114,5.4,5.4,66,0.00,,---,0.00,VWS V14.01,2013-09-22 04:02:00,
2013-09-22 00:03:00,50.5,39.6,29.00,East,79,2.7,5.4,66,0.00,,---,0.00,VWS V14.01,2013-09-22 04:03:00,
2013-09-22 00:04:00,50.5,39.6,29.00,East,85,3.6,4.9,66,0.00,,---,0.00,VWS V14.01,2013-09-22 04:04:00,
2013-09-22 00:05:00,50.5,39.6,29.00,ENE,66,4.0,4.0,66,0.00,,---,0.00,VWS V14.01,2013-09-22 04:05:00,
2013-09-22 00:06:00,50.4,39.5,29.00,East,94,4.0,4.5,66,0.00,,---,0.00,VWS V14.01,2013-09-22 04:06:00,
2013-09-22 00:07:00,50.4,39.5,29.00,ESE,109,4.5,4.5,66,0.00,,---,0.00,VWS V14.01,2013-09-22 04:07:00,
2013-09-22 00:08:00,50.4,39.5,29.00,East,89,4.0,4.9,66,0.00,,---,0.00,VWS V14.01,2013-09-22 04:08:00,
2013-09-22 00:09:00,50.4,39.5,29.00,East,95,3.6,4.0,66,0.00,,---,0.00,VWS V14.01,2013-09-22 04:09:00,
2013-09-22 00:10:00,50.4,39.5,29.00,ESE,119,3.1,4.9,66,0.00,,---,0.00,VWS V14.01,2013-09-22 04:10:00,
2013-09-22 00:11:00,50.4,39.5,29.00,ENE,63,2.7,3.6,66,0.00,,---,0.00,VWS V14.01,2013-09-22 04:11:00,
2013-09-22 00:12:00,50.4,39.8,29.00,East,99,0.0,4.9,67,0.00,,---,0.00,VWS V14.01,2013-09-22 04:12:00,
2013-09-22 00:13:00,50.4,39.8,29.00,East,97,3.1,4.9,67,0.00,,---,0.00,VWS V14.01,2013-09-22 04:13:00,
2013-09-22 00:14:00,50.4,39.8,29.00,ENE,75,3.1,4.0,67,0.00,,---,0.00,VWS V14.01,2013-09-22 04:14:00,
2013-09-22 00:15:00,50.2,39.7,29.00,ESE,111,5.4,6.3,67,0.00,,---,0.00,VWS V14.01,2013-09-22 04:15:00,
2013-09-22 00:16:00,50.2,39.7,29.00,East,82,3.6,5.4,67,0.00,,---,0.00,VWS V14.01,2013-09-22 04:16:00,
2013-09-22 00:17:00,50.2,39.7,29.00,ENE,71,3.6,4.0,67,0.00,,---,0.00,VWS V14.01,2013-09-22 04:17:00,
2013-09-22 00:18:00,50.2,39.7,29.00,East,91,3.6,4.0,67,0.00,,---,0.00,VWS V14.01,2013-09-22 04:18:00,
2013-09-22 00:19:00,50.2,39.7,29.00,East,88,0.0,4.9,67,0.00,,---,0.00,VWS V14.01,2013-09-22 04:19:00,
2013-09-22 00:20:00,50.2,39.7,29.00,ENE,77,3.1,4.5,67,0.00,,---,0.00,VWS V14.01,2013-09-22 04:20:00,
2013-09-22 00:21:00,50.2,39.7,29.00,ENE,75,4.0,4.0,67,0.00,,---,0.00,VWS V14.01,2013-09-22 04:21:00,
2013-09-22 00:22:00,50.2,39.7,29.00,ENE,69,3.1,4.0,67,0.00,,---,0.00,VWS V14.01,2013-09-22 04:22:00,
2013-09-22 00:23:00,50.2,39.7,29.00,East,88,5.8,5.8,67,0.00,,---,0.00,VWS V14.01,2013-09-22 04:23:00,
2013-09-22 00:24:00,50.0,39.5,29.00,ESE,116,3.6,5.8,67,0.00,,---,0.00,VWS V14.01,2013-09-22 04:24:00,
2013-09-22 00:25:00,50.0,39.5,29.00,ENE,67,4.9,4.9,67,0.00,,---,0.00,VWS V14.01,2013-09-22 04:25:00,
2013-09-22 00:26:00,50.0,39.5,29.00,ENE,77,4.9,5.8,67,0.00,,---,0.00,VWS V14.01,2013-09-22 04:26:00,
2013-09-22 00:27:00,50.0,39.5,29.00,East,90,4.5,4.9,67,0.00,,---,0.00,VWS V14.01,2013-09-22 04:27:00,
2013-09-22 00:28:00,50.0,39.9,29.00,ENE,63,4.9,5.4,68,0.00,,---,0.00,VWS V14.01,2013-09-22 04:28:00,
2013-09-22 00:29:00,50.0,39.9,29.00,SE,130,4.5,4.9,68,0.00,,---,0.00,VWS V14.01,2013-09-22 04:29:00,
2013-09-22 00:30:00,50.0,39.9,29.00,East,82,3.6,5.4,68,0.00,,---,0.00,VWS V14.01,2013-09-22 04:30:00,
2013-09-22 00:31:00,50.0,39.9,29.00,ESE,108,3.6,4.0,68,0.00,,---,0.00,VWS V14.01,2013-09-22 04:31:00,
2013-09-22 00:32:00,50.0,39.5,29.00,East,82,0.0,6.7,67,0.00,,---,0.00,VWS V14.01,2013-09-22 04:32:00,
2013-09-22 00:33:00,50.0,39.5,29.00,ENE,72,3.6,4.5,67,0.00,,---,0.00,VWS V14.01,2013-09-22 04:33:00,
2013-09-22 00:34:00,49.8,39.3,29.00,ENE,75,4.0,4.9,67,0.00,,---,0.00,VWS V14.01,2013-09-22 04:34:00,
2013-09-22 00:35:00,49.8,39.3,29.00,ESE,112,4.9,5.4,67,0.00,,---,0.00,VWS V14.01,2013-09-22 04:35:00,
2013-09-22 00:36:00,49.8,39.7,29.00,ESE,113,3.6,4.9,68,0.00,,---,0.00,VWS V14.01,2013-09-22 04:36:00,
2013-09-22 00:37:00,49.8,39.7,29.00,ENE,73,3.1,4.5,68,0.00,,---,0.00,VWS V14.01,2013-09-22 04:37:00,
2013-09-22 00:38:00,49.8,39.7,29.00,ENE,68,4.5,5.4,68,0.00,,---,0.00,VWS V14.01,2013-09-22 04:38:00,
2013-09-22 00:39:00,49.6,39.5,29.00,ESE,109,4.5,5.4,68,0.00,,---,0.00,VWS V14.01,2013-09-22 04:39:00,
2013-09-22 00:40:00,49.6,39.5,29.00,East,101,4.9,6.7,68,0.00,,---,0.00,VWS V14.01,2013-09-22 04:40:00,
2013-09-22 00:41:00,49.6,39.5,29.00,East,79,3.1,5.4,68,0.00,,---,0.00,VWS V14.01,2013-09-22 04:41:00,
2013-09-22 00:42:00,49.6,39.5,29.00,ENE,74,4.5,6.3,68,0.00,,---,0.00,VWS V14.01,2013-09-22 04:42:00,
2013-09-22 00:43:00,49.6,39.5,29.00,ENE,77,4.9,4.9,68,0.00,,---,0.00,VWS V14.01,2013-09-22 04:43:00,
2013-09-22 00:44:00,49.6,39.5,29.00,ENE,73,4.5,6.3,68,0.00,,---,0.00,VWS V14.01,2013-09-22 04:44:00,
2013-09-22 00:45:00,49.6,39.5,29.00,ENE,69,5.4,5.8,68,0.00,,---,0.00,VWS V14.01,2013-09-22 04:45:00,
2013-09-22 00:46:00,49.6,39.9,29.00,ESE,107,2.7,5.8,69,0.00,,---,0.00,VWS V14.01,2013-09-22 04:46:00,
2013-09-22 00:47:00,49.6,39.9,29.00,ENE,59,4.5,4.9,69,0.00,,---,0.00,VWS V14.01,2013-09-22 04:47:00,
2013-09-22 00:48:00,49.6,39.9,29.00,ENE,63,4.5,5.4,69,0.00,,---,0.00,VWS V14.01,2013-09-22 04:48:00,
2013-09-22 00:49:00,49.6,39.9,29.00,ENE,76,0.0,5.4,69,0.00,,---,0.00,VWS V14.01,2013-09-22 04:49:00,
2013-09-22 00:50:00,49.5,39.7,29.00,ENE,76,4.9,5.4,69,0.00,,---,0.00,VWS V14.01,2013-09-22 04:50:00,
2013-09-22 00:51:00,49.5,39.7,29.00,East,101,0.0,4.9,69,0.00,,---,0.00,VWS V14.01,2013-09-22 04:51:00,
2013-09-22 00:52:00,49.5,39.7,29.00,ENE,72,3.6,3.6,69,0.00,,---,0.00,VWS V14.01,2013-09-22 04:52:00,
2013-09-22 00:53:00,49.5,39.7,29.00,ENE,78,0.0,4.5,69,0.00,,---,0.00,VWS V14.01,2013-09-22 04:53:00,
2013-09-22 00:54:00,49.5,39.7,29.00,ESE,110,0.0,4.0,69,0.00,,---,0.00,VWS V14.01,2013-09-22 04:54:00,
2013-09-22 00:55:00,49.3,39.5,29.00,ENE,74,5.8,5.8,69,0.00,,---,0.00,VWS V14.01,2013-09-22 04:55:00,
2013-09-22 00:56:00,49.3,39.5,29.00,ENE,77,3.6,5.8,69,0.00,,---,0.00,VWS V14.01,2013-09-22 04:56:00,
2013-09-22 00:57:00,49.3,39.5,29.00,ENE,64,0.0,5.4,69,0.00,,---,0.00,VWS V14.01,2013-09-22 04:57:00,
2013-09-22 00:58:00,49.3,39.5,29.00,East,92,4.0,5.8,69,0.00,,---,0.00,VWS V14.01,2013-09-22 04:58:00,
2013-09-22 00:59:00,49.3,39.5,29.00,ENE,71,3.6,4.5,69,0.00,,---,0.00,VWS V14.01,2013-09-22 04:59:00,
2013-09-22 01:00:00,49.3,39.5,29.00,East,89,4.5,4.9,69,0.00,,---,0.00,VWS V14.01,2013-09-22 05:00:00,
2013-09-22 01:01:00,49.3,41.7,28.85,North,0,0.0,0.0,75,0.00,,---,0.00,VWS V14.01,2013-09-22 05:01:00,
2013-09-22 01:03:00,49.3,39.9,29.00,ENE,70,4.0,4.9,70,0.00,,---,0.00,VWS V14.01,2013-09-22 05:03:00,
2013-09-22 01:04:00,49.1,39.8,29.00,ENE,71,3.1,4.5,70,0.00,,---,0.00,VWS V14.01,2013-09-22 05:04:00,
2013-09-22 01:07:00,49.3,41.7,28.85,North,356,0.0,0.0,75,0.00,,---,0.00,VWS V14.01,2013-09-22 05:07:00,
2013-09-22 01:10:00,48.9,39.6,29.00,East,85,2.7,4.5,70,0.00,,---,0.00,VWS V14.01,2013-09-22 05:10:00,
2013-09-22 01:11:00,48.9,39.6,29.00,ESE,110,2.7,4.5,70,0.00,,---,0.00,VWS V14.01,2013-09-22 05:11:00,
2013-09-22 01:13:00,49.3,42.0,28.85,North,356,0.0,0.0,76,0.00,,---,0.00,VWS V14.01,2013-09-22 05:13:00,
2013-09-22 01:15:00,48.9,39.9,29.00,ENE,68,0.0,4.5,71,0.00,,---,0.00,VWS V14.01,2013-09-22 05:15:00,
2013-09-22 01:16:00,48.7,39.8,29.00,East,83,0.0,0.0,71,0.00,,---,0.00,VWS V14.01,2013-09-22 05:16:00,
2013-09-22 01:17:00,48.7,39.8,29.00,East,83,0.0,3.6,71,0.00,,---,0.00,VWS V14.01,2013-09-22 05:17:00,
2013-09-22 01:18:00,48.9,41.7,28.85,North,356,0.0,0.0,76,0.00,,---,0.00,VWS V14.01,2013-09-22 05:18:00,
2013-09-22 01:21:00,48.7,39.8,29.00,East,92,4.0,4.0,71,0.00,,---,0.00,VWS V14.01,2013-09-22 05:21:00,
2013-09-22 01:22:00,48.6,39.6,29.00,East,92,3.6,4.0,71,0.00,,---,0.00,VWS V14.01,2013-09-22 05:22:00,
2013-09-22 01:23:00,48.6,41.3,28.85,North,356,0.0,0.0,76,0.00,,---,0.00,VWS V14.01,2013-09-22 05:23:00,
2013-09-22 01:24:00,48.6,40.0,29.00,East,88,3.6,4.9,72,0.00,,---,0.00,VWS V14.01,2013-09-22 05:24:00,
2013-09-22 01:28:00,48.2,41.0,28.85,North,0,0.0,0.0,76,0.00,,---,0.00,VWS V14.01,2013-09-22 05:28:00,
2013-09-22 01:29:00,48.4,40.1,29.00,ESE,103,0.0,4.5,73,0.00,,---,0.00,VWS V14.01,2013-09-22 05:29:00,
2013-09-22 01:31:00,48.4,40.1,29.00,ESE,103,0.0,0.0,73,0.00,,---,0.00,VWS V14.01,2013-09-22 05:31:00,
2013-09-22 01:34:00,48.4,41.5,28.85,North,356,0.0,0.0,77,0.00,,---,0.00,VWS V14.01,2013-09-22 05:34:00,
2013-09-22 01:35:00,48.2,40.0,29.00,East,91,3.1,3.1,73,0.00,,---,0.00,VWS V14.01,2013-09-22 05:35:00,
2013-09-22 01:36:00,48.0,39.8,29.00,East,91,0.0,3.1,73,0.00,,---,0.00,VWS V14.01,2013-09-22 05:36:00,
2013-09-22 01:37:00,48.0,39.8,29.00,East,91,0.0,0.0,73,0.00,,---,0.00,VWS V14.01,2013-09-22 05:37:00,
2013-09-22 01:39:00,48.0,39.8,29.00,East,91,0.0,0.0,73,0.00,,---,0.00,VWS V14.01,2013-09-22 05:39:00,
2013-09-22 01:41:00,47.8,39.6,29.00,East,91,0.0,0.0,73,0.00,,---,0.00,VWS V14.01,2013-09-22 05:41:00,
2013-09-22 01:42:00,47.8,39.6,29.00,East,91,0.0,0.0,73,0.00,,---,0.00,VWS V14.01,2013-09-22 05:42:00,
2013-09-22 01:43:00,47.7,39.4,29.00,East,101,2.7,2.7,73,0.00,,---,0.00,VWS V14.01,2013-09-22 05:43:00,
2013-09-22 01:44:00,48.6,42.3,28.85,North,0,0.0,0.0,79,0.00,,---,0.00,VWS V14.01,2013-09-22 05:44:00,
2013-09-22 01:48:00,47.5,39.3,29.00,ESE,110,0.0,0.0,73,0.00,,---,0.00,VWS V14.01,2013-09-22 05:48:00,
2013-09-22 01:49:00,47.5,39.3,29.00,ESE,110,0.0,0.0,73,0.00,,---,0.00,VWS V14.01,2013-09-22 05:49:00,
2013-09-22 01:50:00,48.6,42.3,28.88,North,356,0.0,0.0,79,0.00,,---,0.00,VWS V14.01,2013-09-22 05:50:00,
2013-09-22 01:51:00,47.5,39.3,29.00,East,85,0.0,3.6,73,0.00,,---,0.00,VWS V14.01,2013-09-22 05:51:00,
2013-09-22 01:52:00,47.5,39.6,29.00,East,85,0.0,0.0,74,0.00,,---,0.00,VWS V14.01,2013-09-22 05:52:00,
2013-09-22 01:53:00,47.5,39.6,29.00,East,85,0.0,0.0,74,0.00,,---,0.00,VWS V14.01,2013-09-22 05:53:00,
2013-09-22 01:54:00,47.3,39.5,29.00,East,85,0.0,0.0,74,0.00,,---,0.00,VWS V14.01,2013-09-22 05:54:00,
2013-09-22 01:55:00,48.6,42.7,28.88,North,356,0.0,0.0,80,0.00,,---,0.00,VWS V14.01,2013-09-22 05:55:00,
2013-09-22 01:56:00,47.3,39.5,29.00,East,85,0.0,0.0,74,0.00,,---,0.00,VWS V14.01,2013-09-22 05:56:00,
2013-09-22 01:57:00,47.3,39.5,29.00,East,85,0.0,0.0,74,0.00,,---,0.00,VWS V14.01,2013-09-22 05:57:00,
2013-09-22 02:00:00,48.4,42.5,28.88,North,356,0.0,0.0,80,0.00,,---,0.00,VWS V14.01,2013-09-22 06:00:00,
2013-09-22 02:02:00,46.9,39.4,29.00,East,85,0.0,0.0,75,0.00,,---,0.00,VWS V14.01,2013-09-22 06:02:00,
2013-09-22 02:03:00,46.9,39.4,29.00,East,85,0.0,0.0,75,0.00,,---,0.00,VWS V14.01,2013-09-22 06:03:00,
2013-09-22 02:04:00,46.9,39.4,29.00,East,85,0.0,0.0,75,0.00,,---,0.00,VWS V14.01,2013-09-22 06:04:00,
2013-09-22 02:05:00,48.0,42.2,28.88,North,356,0.0,0.0,80,0.00,,---,0.00,VWS V14.01,2013-09-22 06:05:00,
2013-09-22 02:10:00,46.6,39.1,29.00,East,85,0.0,0.0,75,0.00,,---,0.00,VWS V14.01,2013-09-22 06:10:00,
2013-09-22 02:11:00,48.4,43.2,28.88,North,0,0.0,0.0,82,0.00,,---,0.00,VWS V14.01,2013-09-22 06:11:00,
2013-09-22 02:14:00,46.6,39.4,29.00,East,85,0.0,0.0,76,0.00,,---,0.00,VWS V14.01,2013-09-22 06:14:00,
2013-09-22 02:16:00,48.6,43.6,28.88,North,356,0.0,0.0,83,0.00,,---,0.00,VWS V14.01,2013-09-22 06:16:00,
2013-09-22 02:22:00,48.0,43.1,28.88,North,356,0.0,0.0,83,0.00,,---,0.00,VWS V14.01,2013-09-22 06:22:00,
2013-09-22 02:24:00,46.6,40.1,29.00,ENE,72,4.5,4.5,78,0.00,,---,0.00,VWS V14.01,2013-09-22 06:24:00,
2013-09-22 02:25:00,46.6,40.1,29.00,East,100,0.0,4.5,78,0.00,,---,0.00,VWS V14.01,2013-09-22 06:25:00,
2013-09-22 02:27:00,47.7,42.8,28.88,North,356,0.0,0.0,83,0.00,,---,0.00,VWS V14.01,2013-09-22 06:27:00,
2013-09-22 02:32:00,47.7,42.8,28.88,North,356,0.0,0.0,83,0.00,,---,0.00,VWS V14.01,2013-09-22 06:32:00,
2013-09-22 02:35:00,46.6,41.1,29.00,East,82,0.0,0.0,81,0.00,,---,0.00,VWS V14.01,2013-09-22 06:35:00,
2013-09-22 02:37:00,47.7,43.1,28.88,North,0,0.0,0.0,84,0.00,,---,0.00,VWS V14.01,2013-09-22 06:37:00,
2013-09-22 02:42:00,47.7,43.1,28.88,North,356,0.0,0.0,84,0.00,,---,0.00,VWS V14.01,2013-09-22 06:42:00,
2013-09-22 02:43:00,46.4,40.9,29.00,East,95,0.0,0.0,81,0.00,,---,0.00,VWS V14.01,2013-09-22 06:43:00,
2013-09-22 02:47:00,47.7,43.1,28.88,North,356,0.0,0.0,84,0.00,,---,0.00,VWS V14.01,2013-09-22 06:47:00,
2013-09-22 02:52:00,48.0,43.7,28.88,North,356,0.0,0.0,85,0.00,,---,0.00,VWS V14.01,2013-09-22 06:52:00,
2013-09-22 02:57:00,48.4,44.1,28.88,North,356,0.0,0.0,85,0.00,,---,0.00,VWS V14.01,2013-09-22 06:57:00,
2013-09-22 03:00:00,45.9,40.7,29.03,East,95,0.0,0.0,82,0.00,,---,0.00,VWS V14.01,2013-09-22 07:00:00,
2013-09-22 03:02:00,48.7,44.8,28.88,North,356,0.0,0.0,86,0.00,,---,0.00,VWS V14.01,2013-09-22 07:02:00,
2013-09-22 03:07:00,48.9,44.9,28.88,North,0,0.0,0.0,86,0.00,,---,0.00,VWS V14.01,2013-09-22 07:07:00,
2013-09-22 03:12:00,49.1,45.1,28.88,North,356,0.0,0.0,86,0.00,,---,0.00,VWS V14.01,2013-09-22 07:12:00,
2013-09-22 03:17:00,49.1,45.1,28.88,North,356,0.0,0.0,86,0.00,,---,0.00,VWS V14.01,2013-09-22 07:17:00,
2013-09-22 03:18:00,45.3,40.5,29.00,East,95,0.0,0.0,83,0.00,,---,0.00,VWS V14.01,2013-09-22 07:18:00,
2013-09-22 03:19:00,45.3,40.5,29.00,East,95,0.0,0.0,83,0.00,,---,0.00,VWS V14.01,2013-09-22 07:19:00,
2013-09-22 03:20:00,45.3,40.5,29.00,East,95,0.0,0.0,83,0.00,,---,0.00,VWS V14.01,2013-09-22 07:20:00,
2013-09-22 03:21:00,45.3,40.5,29.00,East,95,0.0,0.0,83,0.00,,---,0.00,VWS V14.01,2013-09-22 07:21:00,
2013-09-22 03:22:00,49.3,45.6,28.88,North,0,0.0,0.0,87,0.00,,---,0.00,VWS V14.01,2013-09-22 07:22:00,
2013-09-22 03:26:00,45.3,40.5,29.00,East,95,0.0,0.0,83,0.00,,---,0.00,VWS V14.01,2013-09-22 07:26:00,
2013-09-22 03:27:00,49.6,45.9,28.88,North,356,0.0,0.0,87,0.00,,---,0.00,VWS V14.01,2013-09-22 07:27:00,
2013-09-22 03:32:00,45.1,40.6,29.00,East,95,0.0,0.0,84,0.00,,---,0.00,VWS V14.01,2013-09-22 07:32:00,
2013-09-22 03:33:00,49.6,46.2,28.88,North,356,0.0,0.0,88,0.00,,---,0.00,VWS V14.01,2013-09-22 07:33:00,
2013-09-22 03:37:00,45.1,40.6,29.00,East,95,0.0,0.0,84,0.00,,---,0.00,VWS V14.01,2013-09-22 07:37:00,
2013-09-22 03:38:00,49.8,46.7,28.88,North,356,0.0,0.0,89,0.00,,---,0.00,VWS V14.01,2013-09-22 07:38:00,
2013-09-22 03:43:00,50.0,46.9,28.88,North,0,0.0,0.0,89,0.00,,---,0.00,VWS V14.01,2013-09-22 07:43:00,
2013-09-22 03:44:00,45.0,40.4,29.00,East,95,0.0,0.0,84,0.00,,---,0.00,VWS V14.01,2013-09-22 07:44:00,
2013-09-22 03:48:00,50.0,47.2,28.88,North,356,0.0,0.0,90,0.00,,---,0.00,VWS V14.01,2013-09-22 07:48:00,
2013-09-22 03:49:00,45.0,40.7,29.00,East,95,0.0,0.0,85,0.00,,---,0.00,VWS V14.01,2013-09-22 07:49:00,
2013-09-22 03:53:00,50.2,47.4,28.88,North,0,0.0,0.0,90,0.00,,---,0.00,VWS V14.01,2013-09-22 07:53:00,
2013-09-22 03:56:00,44.8,40.5,29.00,East,95,0.0,4.0,85,0.00,,---,0.00,VWS V14.01,2013-09-22 07:56:00,
2013-09-22 03:57:00,44.8,40.5,29.00,East,95,0.0,0.0,85,0.00,,---,0.00,VWS V14.01,2013-09-22 07:57:00,
2013-09-22 03:58:00,50.2,47.7,28.88,North,356,0.0,0.0,91,0.00,,---,0.00,VWS V14.01,2013-09-22 07:58:00,
2013-09-22 03:59:00,44.8,40.5,29.00,East,95,0.0,0.0,85,0.00,,---,0.00,VWS V14.01,2013-09-22 07:59:00,
2013-09-22 04:03:00,45.0,41.0,29.00,East,95,0.0,0.0,86,0.00,,---,0.00,VWS V14.01,2013-09-22 08:03:00,
2013-09-22 04:04:00,50.2,47.7,28.88,North,356,0.0,0.0,91,0.00,,---,0.00,VWS V14.01,2013-09-22 08:04:00,
2013-09-22 04:06:00,45.0,41.0,29.00,East,95,0.0,0.0,86,0.00,,---,0.00,VWS V14.01,2013-09-22 08:06:00,
2013-09-22 04:07:00,45.0,41.0,29.00,East,95,0.0,0.0,86,0.00,,---,0.00,VWS V14.01,2013-09-22 08:07:00,
2013-09-22 04:09:00,50.2,47.7,28.88,North,356,0.0,0.0,91,0.00,,---,0.00,VWS V14.01,2013-09-22 08:09:00,
2013-09-22 04:11:00,45.0,41.0,29.00,East,95,0.0,0.0,86,0.00,,---,0.00,VWS V14.01,2013-09-22 08:11:00,
2013-09-22 04:13:00,44.8,40.9,29.00,East,95,0.0,0.0,86,0.00,,---,0.00,VWS V14.01,2013-09-22 08:13:00,
2013-09-22 04:14:00,50.2,47.7,28.88,North,356,0.0,0.0,91,0.00,,---,0.00,VWS V14.01,2013-09-22 08:14:00,
2013-09-22 04:16:00,44.8,41.2,29.00,East,95,0.0,0.0,87,0.00,,---,0.00,VWS V14.01,2013-09-22 08:16:00,
2013-09-22 04:18:00,44.8,41.2,29.00,East,95,0.0,0.0,87,0.00,,---,0.00,VWS V14.01,2013-09-22 08:18:00,
2013-09-22 04:19:00,50.2,47.7,28.88,North,356,0.0,0.0,91,0.00,,---,0.00,VWS V14.01,2013-09-22 08:19:00,
2013-09-22 04:20:00,44.8,41.2,29.00,East,95,0.0,2.7,87,0.00,,---,0.00,VWS V14.01,2013-09-22 08:20:00,
2013-09-22 04:22:00,44.6,41.0,29.00,East,95,0.0,0.0,87,0.00,,---,0.00,VWS V14.01,2013-09-22 08:22:00,
2013-09-22 04:23:00,44.6,41.0,29.00,East,95,0.0,0.0,87,0.00,,---,0.00,VWS V14.01,2013-09-22 08:23:00,
2013-09-22 04:24:00,50.2,47.7,28.88,North,356,0.0,0.0,91,0.00,,---,0.00,VWS V14.01,2013-09-22 08:24:00,
2013-09-22 04:28:00,44.8,41.5,29.00,East,86,0.0,2.7,88,0.00,,---,0.00,VWS V14.01,2013-09-22 08:28:00,
2013-09-22 04:29:00,50.0,47.5,28.88,North,356,0.0,0.0,91,0.00,,---,0.00,VWS V14.01,2013-09-22 08:29:00,
2013-09-22 04:34:00,49.8,47.3,28.88,North,356,0.0,0.0,91,0.00,,---,0.00,VWS V14.01,2013-09-22 08:34:00,
2013-09-22 04:35:00,44.6,41.3,29.00,ENE,75,0.0,2.7,88,0.00,,---,0.00,VWS V14.01,2013-09-22 08:35:00,
2013-09-22 04:36:00,44.6,41.3,29.00,East,93,0.0,3.1,88,0.00,,---,0.00,VWS V14.01,2013-09-22 08:36:00,
2013-09-22 04:37:00,44.6,41.6,29.00,East,93,0.0,0.0,89,0.00,,---,0.00,VWS V14.01,2013-09-22 08:37:00,
2013-09-22 04:39:00,50.0,47.5,28.88,North,356,0.0,0.0,91,0.00,,---,0.00,VWS V14.01,2013-09-22 08:39:00,
2013-09-22 04:44:00,50.0,47.5,28.88,North,356,0.0,0.0,91,0.00,,---,0.00,VWS V14.01,2013-09-22 08:44:00,
2013-09-22 04:48:00,44.4,41.4,29.00,East,92,0.0,0.0,89,0.00,,---,0.00,VWS V14.01,2013-09-22 08:48:00,
2013-09-22 04:49:00,50.0,47.5,28.88,North,356,0.0,0.0,91,0.00,,---,0.00,VWS V14.01,2013-09-22 08:49:00,
2013-09-22 04:50:00,44.4,41.4,29.00,East,92,0.0,0.0,89,0.00,,---,0.00,VWS V14.01,2013-09-22 08:50:00,
2013-09-22 04:54:00,50.2,47.7,28.88,North,356,0.0,0.0,91,0.00,,---,0.00,VWS V14.01,2013-09-22 08:54:00,
2013-09-22 04:59:00,50.4,47.8,28.88,North,356,0.0,0.0,91,0.00,,---,0.00,VWS V14.01,2013-09-22 08:59:00,
2013-09-22 05:00:00,44.2,41.5,29.00,East,92,0.0,0.0,90,0.00,,---,0.00,VWS V14.01,2013-09-22 09:00:00,
2013-09-22 05:04:00,50.5,48.0,28.88,North,356,0.0,0.0,91,0.00,,---,0.00,VWS V14.01,2013-09-22 09:04:00,
2013-09-22 05:08:00,44.2,41.8,29.00,East,82,3.1,4.0,91,0.00,,---,0.00,VWS V14.01,2013-09-22 09:08:00,
2013-09-22 05:09:00,50.5,48.0,28.88,North,0,0.0,0.0,91,0.00,,---,0.00,VWS V14.01,2013-09-22 09:09:00,
2013-09-22 05:14:00,50.7,48.2,28.88,North,356,0.0,0.0,91,0.00,,---,0.00,VWS V14.01,2013-09-22 09:14:00,
2013-09-22 05:17:00,44.1,41.6,29.00,East,82,0.0,0.0,91,0.00,,---,0.00,VWS V14.01,2013-09-22 09:17:00,
2013-09-22 05:19:00,50.7,48.2,28.88,North,356,0.0,0.0,91,0.00,,---,0.00,VWS V14.01,2013-09-22 09:19:00,
2013-09-22 05:24:00,50.9,48.7,28.88,North,0,0.0,0.0,92,0.00,,---,0.00,VWS V14.01,2013-09-22 09:24:00,
2013-09-22 05:29:00,50.9,48.4,28.88,North,356,0.0,0.0,91,0.00,,---,0.00,VWS V14.01,2013-09-22 09:29:00,
2013-09-22 05:34:00,50.9,48.4,28.88,North,356,0.0,0.0,91,0.00,,---,0.00,VWS V14.01,2013-09-22 09:34:00,
2013-09-22 05:39:00,51.1,48.5,28.88,North,356,0.0,0.0,91,0.00,,---,0.00,VWS V14.01,2013-09-22 09:39:00,
2013-09-22 05:44:00,51.1,48.5,28.88,North,356,0.0,0.0,91,0.00,,---,0.00,VWS V14.01,2013-09-22 09:44:00,
2013-09-22 05:49:00,50.9,48.1,28.88,North,356,0.0,0.0,90,0.00,,---,0.00,VWS V14.01,2013-09-22 09:49:00,
2013-09-22 05:54:00,50.7,47.9,28.88,North,356,0.0,0.0,90,0.00,,---,0.00,VWS V14.01,2013-09-22 09:54:00,
2013-09-22 05:59:00,50.7,47.9,28.88,North,356,0.0,0.0,90,0.00,,---,0.00,VWS V14.01,2013-09-22 09:59:00,
2013-09-22 06:04:00,50.5,47.7,28.88,North,356,0.0,0.0,90,0.00,,---,0.00,VWS V14.01,2013-09-22 10:04:00,
2013-09-22 06:09:00,50.4,47.5,28.88,North,356,0.0,0.0,90,0.00,,---,0.00,VWS V14.01,2013-09-22 10:09:00,
2013-09-22 06:14:00,50.4,47.5,28.88,North,356,0.0,0.0,90,0.00,,---,0.00,VWS V14.01,2013-09-22 10:14:00,
2013-09-22 06:19:00,50.4,47.5,28.91,North,356,0.0,0.0,90,0.00,,---,0.00,VWS V14.01,2013-09-22 10:19:00,
2013-09-22 06:25:00,50.2,47.4,28.91,North,356,0.0,0.0,90,0.00,,---,0.00,VWS V14.01,2013-09-22 10:25:00,
2013-09-22 06:30:00,50.0,47.2,28.91,North,356,0.0,0.0,90,0.00,,---,0.00,VWS V14.01,2013-09-22 10:30:00,
2013-09-22 06:38:00,49.6,46.8,28.91,North,356,0.0,0.0,90,0.00,,---,0.00,VWS V14.01,2013-09-22 10:38:00,
2013-09-22 06:43:00,49.3,46.5,28.91,North,356,0.0,0.0,90,0.00,,---,0.00,VWS V14.01,2013-09-22 10:43:00,
2013-09-22 06:49:00,48.9,46.1,28.91,North,356,0.0,0.0,90,0.00,,---,0.00,VWS V14.01,2013-09-22 10:49:00,
2013-09-22 07:15:00,48.7,45.9,28.91,North,356,0.0,0.0,90,0.00,,---,0.00,VWS V14.01,2013-09-22 11:15:00,
2013-09-22 07:23:00,48.6,45.8,28.91,North,356,0.0,0.0,90,0.00,,---,0.00,VWS V14.01,2013-09-22 11:23:00,
2013-09-22 07:31:00,48.2,45.4,28.91,North,356,0.0,0.0,90,0.00,,---,0.00,VWS V14.01,2013-09-22 11:31:00,
2013-09-22 07:52:00,48.0,45.5,28.91,North,356,0.0,0.0,91,0.00,,---,0.00,VWS V14.01,2013-09-22 11:52:00,
2013-09-22 08:01:00,48.6,46.1,28.94,North,356,0.0,0.0,91,0.00,,---,0.00,VWS V14.01,2013-09-22 12:01:00,
2013-09-22 08:18:00,50.5,48.3,28.94,North,356,0.0,0.0,92,0.00,,---,0.00,VWS V14.01,2013-09-22 12:18:00,
2013-09-22 08:24:00,51.4,49.2,28.94,North,356,0.0,0.0,92,0.00,,---,0.00,VWS V14.01,2013-09-22 12:24:00,
2013-09-22 08:29:00,52.2,50.2,28.94,North,356,0.0,0.0,93,0.00,,---,0.00,VWS V14.01,2013-09-22 12:29:00,
2013-09-22 08:36:00,52.9,50.9,28.94,North,356,0.0,0.0,93,0.00,,---,0.00,VWS V14.01,2013-09-22 12:36:00,
2013-09-22 08:41:00,53.2,51.3,28.94,North,356,0.0,0.0,93,0.00,,---,0.00,VWS V14.01,2013-09-22 12:41:00,
2013-09-22 08:46:00,54.1,52.2,28.94,ENE,74,2.7,2.7,93,0.00,,---,0.00,VWS V14.01,2013-09-22 12:46:00,
2013-09-22 08:51:00,54.5,52.5,28.94,East,89,0.0,0.0,93,0.00,,---,0.00,VWS V14.01,2013-09-22 12:51:00,
2013-09-22 08:57:00,54.9,52.3,28.94,ESE,104,0.0,0.0,91,0.00,,---,0.00,VWS V14.01,2013-09-22 12:57:00,
2013-09-22 09:02:00,55.6,51.8,28.94,East,87,0.0,0.0,87,0.00,,---,0.00,VWS V14.01,2013-09-22 13:02:00,
2013-09-22 09:07:00,56.3,50.2,28.94,East,84,4.0,4.0,80,0.00,,---,0.00,VWS V14.01,2013-09-22 13:07:00,
2013-09-22 09:12:00,57.0,48.1,28.94,ENE,74,3.6,5.4,72,0.00,,---,0.00,VWS V14.01,2013-09-22 13:12:00,
2013-09-22 09:17:00,57.9,45.4,28.94,East,97,0.0,0.0,63,0.00,,---,0.00,VWS V14.01,2013-09-22 13:17:00,
2013-09-22 09:22:00,58.6,42.1,28.94,East,80,4.5,5.4,54,0.00,,---,0.00,VWS V14.01,2013-09-22 13:22:00,
2013-09-22 09:27:00,59.4,39.2,28.94,East,84,5.8,5.8,47,0.00,,---,0.00,VWS V14.01,2013-09-22 13:27:00,
2013-09-22 09:32:00,59.4,34.4,28.97,NE,55,3.6,5.4,39,0.00,,---,0.00,VWS V14.01,2013-09-22 13:32:00,
2013-09-22 09:37:00,59.5,34.6,28.97,ENE,71,4.5,4.5,39,0.00,,---,0.00,VWS V14.01,2013-09-22 13:37:00,
2013-09-22 11:23:00,66.0,27.2,28.97,NNE,25,0.0,3.6,23,0.00,,---,0.00,VWS V14.01,2013-09-22 15:23:00,
2013-09-22 11:28:00,66.7,26.7,28.97,SE,132,0.0,3.1,22,0.00,,---,0.00,VWS V14.01,2013-09-22 15:28:00,
2013-09-22 11:34:00,65.8,23.7,28.97,East,93,2.7,4.5,20,0.00,,---,0.00,VWS V14.01,2013-09-22 15:34:00,
2013-09-22 11:39:00,67.1,24.7,28.97,North,356,4.5,8.3,20,0.00,,---,0.00,VWS V14.01,2013-09-22 15:39:00,
2013-09-22 11:44:00,67.3,24.9,28.97,NNE,22,3.1,6.3,20,0.00,,---,0.00,VWS V14.01,2013-09-22 15:44:00,
2013-09-22 11:49:00,67.1,27.0,28.97,NNW,347,3.6,4.0,22,0.00,,---,0.00,VWS V14.01,2013-09-22 15:49:00,
2013-09-22 11:54:00,68.0,25.5,28.97,WNW,288,3.1,4.9,20,0.00,,---,0.00,VWS V14.01,2013-09-22 15:54:00,
2013-09-22 11:59:00,66.7,27.8,28.97,East,82,0.0,4.0,23,0.00,,---,0.00,VWS V14.01,2013-09-22 15:59:00,
2013-09-22 12:04:00,67.6,27.5,28.97,East,85,0.0,2.7,22,0.00,,---,0.00,VWS V14.01,2013-09-22 16:04:00,
2013-09-22 12:09:00,67.3,24.9,28.97,NNE,29,0.0,0.0,20,0.00,,---,0.00,VWS V14.01,2013-09-22 16:09:00,
2013-09-22 12:14:00,66.9,24.6,28.97,North,356,3.6,4.9,20,0.00,,---,0.00,VWS V14.01,2013-09-22 16:14:00,
2013-09-22 12:19:00,67.5,27.3,28.97,NNE,18,5.4,5.4,22,0.00,,---,0.00,VWS V14.01,2013-09-22 16:19:00,
2013-09-22 12:24:00,68.0,25.5,28.97,NNE,21,3.1,4.5,20,0.00,,---,0.00,VWS V14.01,2013-09-22 16:24:00,
2013-09-22 12:29:00,69.4,25.4,28.97,SW,215,0.0,2.7,19,0.00,,---,0.00,VWS V14.01,2013-09-22 16:29:00,
2013-09-22 12:34:00,70.3,26.2,28.97,NE,53,0.0,3.6,19,0.00,,---,0.00,VWS V14.01,2013-09-22 16:34:00,
2013-09-22 12:39:00,70.2,23.4,28.97,West,264,0.0,0.0,17,0.00,,---,0.00,VWS V14.01,2013-09-22 16:39:00,
2013-09-22 12:44:00,70.9,22.5,28.97,North,4,0.0,4.0,16,0.00,,---,0.00,VWS V14.01,2013-09-22 16:44:00,
2013-09-22 12:49:00,69.6,22.9,28.97,North,351,5.4,5.8,17,0.00,,---,0.00,VWS V14.01,2013-09-22 16:49:00,
2013-09-22 12:54:00,70.2,23.4,28.97,ESE,115,0.0,0.0,17,0.00,,---,0.00,VWS V14.01,2013-09-22 16:54:00,
2013-09-22 12:59:00,70.9,22.5,28.97,SW,225,0.0,4.5,16,0.00,,---,0.00,VWS V14.01,2013-09-22 16:59:00,
2013-09-22 13:04:00,71.8,23.2,28.97,East,83,0.0,4.0,16,0.00,,---,0.00,VWS V14.01,2013-09-22 17:04:00,
2013-09-22 13:09:00,71.6,23.1,28.97,North,351,4.0,7.8,16,0.00,,---,0.00,VWS V14.01,2013-09-22 17:09:00,
2013-09-22 13:14:00,69.6,22.9,28.97,NW,306,3.1,4.9,17,0.00,,---,0.00,VWS V14.01,2013-09-22 17:14:00,
2013-09-22 13:19:00,67.1,20.9,28.97,NNW,331,5.8,8.7,17,0.00,,---,0.00,VWS V14.01,2013-09-22 17:19:00,
2013-09-22 13:24:00,68.2,25.6,28.97,NNE,20,0.0,3.6,20,0.00,,---,0.00,VWS V14.01,2013-09-22 17:24:00,
2013-09-22 13:29:00,70.3,23.5,28.97,ENE,73,0.0,5.8,17,0.00,,---,0.00,VWS V14.01,2013-09-22 17:29:00,
2013-09-22 13:34:00,69.6,22.9,28.97,NNW,327,4.5,6.7,17,0.00,,---,0.00,VWS V14.01,2013-09-22 17:34:00,
2013-09-22 13:39:00,69.6,22.9,28.97,North,351,0.0,0.0,17,0.00,,---,0.00,VWS V14.01,2013-09-22 17:39:00,
2013-09-22 13:44:00,70.9,22.5,28.97,ENE,60,0.0,3.1,16,0.00,,---,0.00,VWS V14.01,2013-09-22 17:44:00,
2013-09-22 13:49:00,70.0,23.2,28.97,North,351,0.0,6.3,17,0.00,,---,0.00,VWS V14.01,2013-09-22 17:49:00,
2013-09-22 13:54:00,69.1,22.5,28.97,NE,47,0.0,0.0,17,0.00,,---,0.00,VWS V14.01,2013-09-22 17:54:00,
2013-09-22 13:59:00,68.5,22.0,28.97,NNE,19,0.0,2.7,17,0.00,,---,0.00,VWS V14.01,2013-09-22 17:59:00,
2013-09-22 14:04:00,70.2,23.4,28.94,WNW,288,0.0,3.6,17,0.00,,---,0.00,VWS V14.01,2013-09-22 18:04:00,
2013-09-22 14:09:00,72.9,24.1,28.94,ENE,78,3.1,3.1,16,0.00,,---,0.00,VWS V14.01,2013-09-22 18:09:00,
2013-09-22 14:14:00,73.8,24.8,28.94,NE,39,0.0,3.6,16,0.00,,---,0.00,VWS V14.01,2013-09-22 18:14:00,
2013-09-22 14:19:00,72.7,23.9,28.94,ESE,113,0.0,0.0,16,0.00,,---,0.00,VWS V14.01,2013-09-22 18:19:00,
2013-09-22 14:25:00,73.6,24.7,28.94,SE,138,3.1,3.6,16,0.00,,---,0.00,VWS V14.01,2013-09-22 18:25:00,
2013-09-22 14:30:00,72.1,23.5,28.94,ENE,65,0.0,5.8,16,0.00,,---,0.00,VWS V14.01,2013-09-22 18:30:00,
2013-09-22 14:35:00,72.9,24.1,28.94,NNE,30,0.0,0.0,16,0.00,,---,0.00,VWS V14.01,2013-09-22 18:35:00,
2013-09-22 14:40:00,73.6,24.7,28.94,NNE,22,4.9,6.3,16,0.00,,---,0.00,VWS V14.01,2013-09-22 18:40:00,
2013-09-22 14:45:00,71.8,23.2,28.94,North,351,0.0,6.7,16,0.00,,---,0.00,VWS V14.01,2013-09-22 18:45:00,
2013-09-22 14:50:00,73.8,24.8,28.94,ESE,120,0.0,4.0,16,0.00,,---,0.00,VWS V14.01,2013-09-22 18:50:00,
2013-09-22 14:55:00,74.1,25.1,28.94,NNE,18,0.0,4.0,16,0.00,,---,0.00,VWS V14.01,2013-09-22 18:55:00,
2013-09-22 15:00:00,74.3,25.2,28.94,East,97,0.0,0.0,16,0.00,,---,0.00,VWS V14.01,2013-09-22 19:00:00,
2013-09-22 15:05:00,74.8,24.1,28.94,ENE,69,0.0,0.0,15,0.00,,---,0.00,VWS V14.01,2013-09-22 19:05:00,
2013-09-22 15:10:00,75.6,24.7,28.94,WNW,284,3.6,3.6,15,0.00,,---,0.00,VWS V14.01,2013-09-22 19:10:00,
2013-09-22 15:15:00,75.4,24.6,28.94,ENE,64,0.0,0.0,15,0.00,,---,0.00,VWS V14.01,2013-09-22 19:15:00,
2013-09-22 15:20:00,72.7,23.9,28.94,WNW,302,4.9,5.4,16,0.00,,---,0.00,VWS V14.01,2013-09-22 19:20:00,
2013-09-22 15:25:00,72.7,23.9,28.94,North,0,0.0,2.7,16,0.00,,---,0.00,VWS V14.01,2013-09-22 19:25:00,
2013-09-22 15:30:00,73.9,25.0,28.94,SE,134,0.0,0.0,16,0.00,,---,0.00,VWS V14.01,2013-09-22 19:30:00,
2013-09-22 15:35:00,73.4,24.5,28.94,WNW,282,3.6,4.9,16,0.00,,---,0.00,VWS V14.01,2013-09-22 19:35:00,
2013-09-22 15:40:00,72.3,23.6,28.94,East,85,3.6,3.6,16,0.00,,---,0.00,VWS V14.01,2013-09-22 19:40:00,
2013-09-22 15:45:00,73.0,24.2,28.94,East,88,0.0,4.0,16,0.00,,---,0.00,VWS V14.01,2013-09-22 19:45:00,
2013-09-22 15:51:00,73.9,25.0,28.94,NNE,14,3.1,6.3,16,0.00,,---,0.00,VWS V14.01,2013-09-22 19:51:00,
2013-09-22 15:56:00,73.0,24.2,28.94,NNE,32,0.0,3.1,16,0.00,,---,0.00,VWS V14.01,2013-09-22 19:56:00,
2013-09-22 16:01:00,73.4,24.5,28.94,ENE,60,0.0,3.6,16,0.00,,---,0.00,VWS V14.01,2013-09-22 20:01:00,
2013-09-22 16:06:00,74.3,25.2,28.94,ESE,113,0.0,0.0,16,0.00,,---,0.00,VWS V14.01,2013-09-22 20:06:00,
2013-09-22 16:11:00,73.6,24.7,28.94,North,2,0.0,4.9,16,0.00,,---,0.00,VWS V14.01,2013-09-22 20:11:00,
2013-09-22 16:16:00,74.1,25.1,28.94,ESE,104,3.6,3.6,16,0.00,,---,0.00,VWS V14.01,2013-09-22 20:16:00,
2013-09-22 16:21:00,72.0,23.4,28.94,WSW,254,2.7,6.3,16,0.00,,---,0.00,VWS V14.01,2013-09-22 20:21:00,
2013-09-22 16:26:00,71.8,23.2,28.94,ENE,77,0.0,4.9,16,0.00,,---,0.00,VWS V14.01,2013-09-22 20:26:00,
2013-09-22 16:31:00,72.7,23.9,28.91,West,264,0.0,3.1,16,0.00,,---,0.00,VWS V14.01,2013-09-22 20:31:00,
2013-09-22 16:36:00,73.2,24.4,28.91,North,351,0.0,4.9,16,0.00,,---,0.00,VWS V14.01,2013-09-22 20:36:00,
2013-09-22 16:41:00,72.3,23.6,28.91,NNW,341,3.1,4.5,16,0.00,,---,0.00,VWS V14.01,2013-09-22 20:41:00,
2013-09-22 16:46:00,73.0,24.2,28.94,ENE,67,0.0,0.0,16,0.00,,---,0.00,VWS V14.01,2013-09-22 20:46:00,
2013-09-22 16:51:00,73.2,24.4,28.94,SSW,201,0.0,6.9,16,0.00,,---,0.00,VWS V14.01,2013-09-22 20:51:00,
2013-09-22 16:56:00,71.8,23.2,28.94,NNW,336,0.0,5.4,16,0.00,,---,0.00,VWS V14.01,2013-09-22 20:56:00,
2013-09-22 17:01:00,71.8,23.2,28.91,NW,322,3.6,3.6,16,0.00,,---,0.00,VWS V14.01,2013-09-22 21:01:00,
2013-09-22 17:06:00,71.1,22.6,28.91,NW,322,3.1,5.8,16,0.00,,---,0.00,VWS V14.01,2013-09-22 21:06:00,
2013-09-22 17:11:00,71.8,23.2,28.91,East,87,0.0,0.0,16,0.00,,---,0.00,VWS V14.01,2013-09-22 21:11:00,
2013-09-22 17:16:00,71.6,23.1,28.91,ENE,68,0.0,0.0,16,0.00,,---,0.00,VWS V14.01,2013-09-22 21:16:00,
2013-09-22 17:21:00,72.3,23.6,28.91,SSE,147,0.0,0.0,16,0.00,,---,0.00,VWS V14.01,2013-09-22 21:21:00,
2013-09-22 17:26:00,72.7,23.9,28.91,NE,40,0.0,0.0,16,0.00,,---,0.00,VWS V14.01,2013-09-22 21:26:00,
2013-09-22 17:31:00,72.1,23.5,28.91,ENE,61,0.0,3.1,16,0.00,,---,0.00,VWS V14.01,2013-09-22 21:31:00,
2013-09-22 17:36:00,72.1,23.5,28.91,North,351,6.3,6.3,16,0.00,,---,0.00,VWS V14.01,2013-09-22 21:36:00,
2013-09-22 17:41:00,71.6,23.1,28.91,NE,34,2.7,4.0,16,0.00,,---,0.00,VWS V14.01,2013-09-22 21:41:00,
2013-09-22 17:46:00,70.2,23.4,28.91,NW,313,3.6,5.8,17,0.00,,---,0.00,VWS V14.01,2013-09-22 21:46:00,
2013-09-22 17:51:00,70.3,23.5,28.91,ESE,110,0.0,4.9,17,0.00,,---,0.00,VWS V14.01,2013-09-22 21:51:00,
2013-09-22 17:56:00,70.2,23.4,28.91,NW,319,3.1,3.1,17,0.00,,---,0.00,VWS V14.01,2013-09-22 21:56:00,
2013-09-22 18:01:00,70.2,23.4,28.91,North,351,0.0,4.9,17,0.00,,---,0.00,VWS V14.01,2013-09-22 22:01:00,
2013-09-22 18:06:00,69.8,23.1,28.91,East,94,0.0,4.5,17,0.00,,---,0.00,VWS V14.01,2013-09-22 22:06:00,
2013-09-22 18:11:00,69.8,23.1,28.91,NNW,338,0.0,0.0,17,0.00,,---,0.00,VWS V14.01,2013-09-22 22:11:00,
2013-09-22 18:16:00,70.0,23.2,28.94,NNW,347,0.0,2.7,17,0.00,,---,0.00,VWS V14.01,2013-09-22 22:16:00,
2013-09-22 18:21:00,69.6,22.9,28.94,NNE,12,0.0,0.0,17,0.00,,---,0.00,VWS V14.01,2013-09-22 22:21:00,
2013-09-22 18:27:00,68.7,22.2,28.94,NNE,27,0.0,4.9,17,0.00,,---,0.00,VWS V14.01,2013-09-22 22:27:00,
2013-09-22 18:32:00,68.5,22.0,28.94,NNE,24,0.0,0.0,17,0.00,,---,0.00,VWS V14.01,2013-09-22 22:32:00,
2013-09-22 18:37:00,68.4,21.9,28.94,ENE,58,0.0,0.0,17,0.00,,---,0.00,VWS V14.01,2013-09-22 22:37:00,
2013-09-22 18:42:00,67.6,21.3,28.94,West,267,0.0,0.0,17,0.00,,---,0.00,VWS V14.01,2013-09-22 22:42:00,
2013-09-22 18:47:00,66.6,24.3,28.94,North,351,0.0,0.0,20,0.00,,---,0.00,VWS V14.01,2013-09-22 22:47:00,
2013-09-22 18:52:00,66.0,26.1,28.94,SSE,154,0.0,0.0,22,0.00,,---,0.00,VWS V14.01,2013-09-22 22:52:00,
2013-09-22 18:58:00,65.1,26.4,28.94,SSE,154,0.0,0.0,23,0.00,,---,0.00,VWS V14.01,2013-09-22 22:58:00,
2013-09-22 19:03:00,64.2,25.7,28.94,SSE,153,0.0,0.0,23,0.00,,---,0.00,VWS V14.01,2013-09-22 23:03:00,
2013-09-22 19:08:00,63.7,26.2,28.94,NE,36,0.0,3.1,24,0.00,,---,0.00,VWS V14.01,2013-09-22 23:08:00,
2013-09-22 19:13:00,63.1,25.8,28.94,NE,34,0.0,0.0,24,0.00,,---,0.00,VWS V14.01,2013-09-22 23:13:00,
2013-09-22 19:18:00,62.8,26.5,28.94,NNE,18,0.0,0.0,25,0.00,,---,0.00,VWS V14.01,2013-09-22 23:18:00,
2013-09-22 19:23:00,62.2,26.0,28.94,NNE,18,0.0,0.0,25,0.00,,---,0.00,VWS V14.01,2013-09-22 23:23:00,
2013-09-22 19:28:00,61.9,25.7,28.94,NNE,18,0.0,0.0,25,0.00,,---,0.00,VWS V14.01,2013-09-22 23:28:00,
2013-09-22 19:33:00,61.3,26.2,28.94,NNE,18,0.0,0.0,26,0.00,,---,0.00,VWS V14.01,2013-09-22 23:33:00,
2013-09-22 19:38:00,60.8,26.6,28.94,NNE,18,0.0,0.0,27,0.00,,---,0.00,VWS V14.01,2013-09-22 23:38:00,
2013-09-22 19:44:00,60.3,27.0,28.94,NNE,18,0.0,0.0,28,0.00,,---,0.00,VWS V14.01,2013-09-22 23:44:00,
2013-09-22 19:49:00,59.9,26.7,28.94,NNE,18,0.0,0.0,28,0.00,,---,0.00,VWS V14.01,2013-09-22 23:49:00,
2013-09-22 19:54:00,59.5,28.1,28.94,NNE,18,0.0,0.0,30,0.00,,---,0.00,VWS V14.01,2013-09-22 23:54:00,
2013-09-22 19:59:00,59.2,28.6,28.94,NNE,18,0.0,0.0,31,0.00,,---,0.00,VWS V14.01,2013-09-22 23:59:00,
2013-09-22 20:04:00,58.8,29.0,28.94,NNE,18,0.0,0.0,32,0.00,,---,0.00,VWS V14.01,2013-09-23 00:04:00,
2013-09-22 20:09:00,58.5,30.2,28.94,NNE,18,0.0,0.0,34,0.00,,---,0.00,VWS V14.01,2013-09-23 00:09:00,
2013-09-22 20:14:00,58.1,29.9,28.94,NNE,18,0.0,0.0,34,0.00,,---,0.00,VWS V14.01,2013-09-23 00:14:00,
2013-09-22 20:19:00,57.9,30.5,28.94,NNE,18,0.0,0.0,35,0.00,,---,0.00,VWS V14.01,2013-09-23 00:19:00,
2013-09-22 20:24:00,57.7,30.3,28.94,NNE,18,0.0,0.0,35,0.00,,---,0.00,VWS V14.01,2013-09-23 00:24:00,
2013-09-22 20:29:00,57.4,30.0,28.94,NNE,18,0.0,0.0,35,0.00,,---,0.00,VWS V14.01,2013-09-23 00:29:00,
2013-09-22 20:34:00,57.2,30.5,28.94,NNE,18,0.0,0.0,36,0.00,,---,0.00,VWS V14.01,2013-09-23 00:34:00,
2013-09-22 20:39:00,56.8,30.2,28.94,NNE,18,0.0,0.0,36,0.00,,---,0.00,VWS V14.01,2013-09-23 00:39:00,
2013-09-22 20:44:00,56.7,30.0,28.94,NNE,18,0.0,0.0,36,0.00,,---,0.00,VWS V14.01,2013-09-23 00:44:00,
2013-09-22 20:49:00,56.5,30.5,28.94,NNE,18,0.0,0.0,37,0.00,,---,0.00,VWS V14.01,2013-09-23 00:49:00,
2013-09-22 20:54:00,56.3,30.4,28.94,NNE,18,0.0,0.0,37,0.00,,---,0.00,VWS V14.01,2013-09-23 00:54:00,
2013-09-22 20:59:00,55.9,30.7,28.94,NNE,18,0.0,0.0,38,0.00,,---,0.00,VWS V14.01,2013-09-23 00:59:00,
2013-09-22 21:04:00,55.8,30.6,28.94,NNE,18,0.0,0.0,38,0.00,,---,0.00,VWS V14.01,2013-09-23 01:04:00,
2013-09-22 21:09:00,55.4,30.9,28.94,NNE,18,0.0,0.0,39,0.00,,---,0.00,VWS V14.01,2013-09-23 01:09:00,
2013-09-22 21:14:00,55.0,30.5,28.94,NNE,18,0.0,0.0,39,0.00,,---,0.00,VWS V14.01,2013-09-23 01:14:00,
2013-09-22 21:19:00,54.9,30.4,28.94,NNE,18,0.0,0.0,39,0.00,,---,0.00,VWS V14.01,2013-09-23 01:19:00,
2013-09-22 21:24:00,54.7,30.9,28.94,NNE,18,0.0,0.0,40,0.00,,---,0.00,VWS V14.01,2013-09-23 01:24:00,
2013-09-22 21:29:00,54.5,31.3,28.94,NNE,18,0.0,0.0,41,0.00,,---,0.00,VWS V14.01,2013-09-23 01:29:00,
2013-09-22 21:34:00,54.3,31.1,28.97,NNE,18,0.0,0.0,41,0.00,,---,0.00,VWS V14.01,2013-09-23 01:34:00,
2013-09-22 21:39:00,54.1,31.6,28.97,NNE,18,0.0,0.0,42,0.00,,---,0.00,VWS V14.01,2013-09-23 01:39:00,
2013-09-22 21:44:00,54.0,32.0,28.97,NNE,18,0.0,0.0,43,0.00,,---,0.00,VWS V14.01,2013-09-23 01:44:00,
2013-09-22 21:45:00,56.1,36.2,29.03,East,81,2.7,4.0,47,0.00,,---,0.00,VWS V14.01,2013-09-23 01:45:00,
2013-09-22 21:47:00,55.9,36.5,29.03,ENE,73,3.6,4.5,48,0.00,,---,0.00,VWS V14.01,2013-09-23 01:47:00,
2013-09-22 21:49:00,53.8,32.4,28.97,NNE,18,0.0,0.0,44,0.00,,---,0.00,VWS V14.01,2013-09-23 01:49:00,
2013-09-22 21:51:00,55.9,36.5,29.03,East,82,4.0,5.4,48,0.00,,---,0.00,VWS V14.01,2013-09-23 01:51:00,
2013-09-22 21:54:00,53.6,32.8,28.97,NNE,18,0.0,0.0,45,0.00,,---,0.00,VWS V14.01,2013-09-23 01:54:00,
2013-09-22 21:59:00,53.4,33.2,28.97,NNE,18,0.0,0.0,46,0.00,,---,0.00,VWS V14.01,2013-09-23 01:59:00,
2013-09-22 22:00:00,55.6,36.7,29.03,ESE,119,6.7,6.7,49,0.00,,---,0.00,VWS V14.01,2013-09-23 02:00:00,
2013-09-22 22:03:00,55.4,37.1,29.03,ENE,76,4.5,6.7,50,0.00,,---,0.00,VWS V14.01,2013-09-23 02:03:00,
2013-09-22 22:04:00,53.2,33.0,28.97,NNE,18,0.0,0.0,46,0.00,,---,0.00,VWS V14.01,2013-09-23 02:04:00,
2013-09-22 22:05:00,55.2,36.9,29.03,ENE,77,3.6,4.5,50,0.00,,---,0.00,VWS V14.01,2013-09-23 02:05:00,
2013-09-22 22:06:00,55.2,36.9,29.03,ENE,68,3.1,4.9,50,0.00,,---,0.00,VWS V14.01,2013-09-23 02:06:00,
2013-09-22 22:07:00,55.2,36.9,29.03,East,89,4.0,4.5,50,0.00,,---,0.00,VWS V14.01,2013-09-23 02:07:00,
2013-09-22 22:08:00,55.0,36.8,29.03,East,97,3.6,4.5,50,0.00,,---,0.00,VWS V14.01,2013-09-23 02:08:00,
2013-09-22 22:10:00,52.9,33.2,28.97,NNE,18,0.0,0.0,47,0.00,,---,0.00,VWS V14.01,2013-09-23 02:10:00,
2013-09-22 22:11:00,54.9,37.1,29.03,East,87,3.6,4.9,51,0.00,,---,0.00,VWS V14.01,2013-09-23 02:11:00,
2013-09-22 22:12:00,54.9,37.1,29.03,East,90,3.6,4.9,51,0.00,,---,0.00,VWS V14.01,2013-09-23 02:12:00,
2013-09-22 22:13:00,54.9,37.1,29.03,East,89,4.5,5.4,51,0.00,,---,0.00,VWS V14.01,2013-09-23 02:13:00,
2013-09-22 22:14:00,54.9,37.1,29.03,ESE,116,3.1,4.5,51,0.00,,---,0.00,VWS V14.01,2013-09-23 02:14:00,
2013-09-22 22:15:00,52.9,33.7,28.97,NNE,18,0.0,0.0,48,0.00,,---,0.00,VWS V14.01,2013-09-23 02:15:00,
2013-09-22 22:16:00,54.7,37.4,29.03,NE,39,2.7,5.8,52,0.00,,---,0.00,VWS V14.01,2013-09-23 02:16:00,
2013-09-22 22:17:00,54.7,37.4,29.03,ENE,73,3.1,4.5,52,0.00,,---,0.00,VWS V14.01,2013-09-23 02:17:00,
2013-09-22 22:19:00,54.5,37.7,29.03,ESE,119,4.5,5.4,53,0.00,,---,0.00,VWS V14.01,2013-09-23 02:19:00,
2013-09-22 22:20:00,53.1,35.9,28.97,ENE,68,0.0,0.0,52,0.00,,---,0.00,VWS V14.01,2013-09-23 02:20:00,
2013-09-22 22:21:00,54.5,37.7,29.03,East,95,4.5,4.5,53,0.00,,---,0.00,VWS V14.01,2013-09-23 02:21:00,
2013-09-22 22:22:00,54.5,38.2,29.03,ESE,112,3.6,5.4,54,0.00,,---,0.00,VWS V14.01,2013-09-23 02:22:00,
2013-09-22 22:23:00,54.3,38.0,29.03,ESE,112,3.6,4.0,54,0.00,,---,0.00,VWS V14.01,2013-09-23 02:23:00,
2013-09-22 22:25:00,53.4,37.7,28.97,ENE,61,0.0,3.6,55,0.00,,---,0.00,VWS V14.01,2013-09-23 02:25:00,
2013-09-22 22:27:00,54.3,38.0,29.03,ESE,102,4.5,5.8,54,0.00,,---,0.00,VWS V14.01,2013-09-23 02:27:00,
2013-09-22 22:30:00,53.4,37.2,28.97,ENE,65,0.0,3.1,54,0.00,,---,0.00,VWS V14.01,2013-09-23 02:30:00,
2013-09-22 22:31:00,54.1,38.3,29.03,East,94,3.6,3.6,55,0.00,,---,0.00,VWS V14.01,2013-09-23 02:31:00,
2013-09-22 22:33:00,54.1,38.3,29.03,ESE,105,0.0,5.4,55,0.00,,---,0.00,VWS V14.01,2013-09-23 02:33:00,
2013-09-22 22:34:00,54.0,38.2,29.03,ESE,120,3.1,4.5,55,0.00,,---,0.00,VWS V14.01,2013-09-23 02:34:00,
2013-09-22 22:35:00,53.2,37.0,28.97,ENE,71,3.1,3.6,54,0.00,,---,0.00,VWS V14.01,2013-09-23 02:35:00,
2013-09-22 22:36:00,54.0,38.6,29.03,ESE,115,4.0,5.8,56,0.00,,---,0.00,VWS V14.01,2013-09-23 02:36:00,
2013-09-22 22:39:00,53.8,38.9,29.03,ESE,118,4.0,5.8,57,0.00,,---,0.00,VWS V14.01,2013-09-23 02:39:00,
2013-09-22 22:40:00,53.8,38.9,29.03,ESE,108,3.6,4.0,57,0.00,,---,0.00,VWS V14.01,2013-09-23 02:40:00,
2013-09-22 22:41:00,52.9,37.6,28.97,NE,48,3.6,4.0,56,0.00,,---,0.00,VWS V14.01,2013-09-23 02:41:00,
2013-09-22 22:42:00,53.6,38.8,29.03,East,94,3.6,4.0,57,0.00,,---,0.00,VWS V14.01,2013-09-23 02:42:00,
2013-09-22 22:43:00,53.6,38.8,29.03,ESE,110,3.6,4.9,57,0.00,,---,0.00,VWS V14.01,2013-09-23 02:43:00,
2013-09-22 22:45:00,53.4,38.6,29.03,ESE,110,0.0,0.0,57,0.00,,---,0.00,VWS V14.01,2013-09-23 02:45:00,
2013-09-22 22:46:00,52.7,37.5,28.97,ESE,117,0.0,0.0,56,0.00,,---,0.00,VWS V14.01,2013-09-23 02:46:00,
2013-09-22 22:47:00,53.2,38.9,29.03,ESE,106,4.9,4.9,58,0.00,,---,0.00,VWS V14.01,2013-09-23 02:47:00,
2013-09-22 22:48:00,53.2,38.9,29.03,ESE,104,0.0,4.9,58,0.00,,---,0.00,VWS V14.01,2013-09-23 02:48:00,
2013-09-22 22:51:00,53.2,39.3,29.03,East,92,2.7,3.6,59,0.00,,---,0.00,VWS V14.01,2013-09-23 02:51:00,
2013-09-22 22:52:00,52.3,37.6,28.97,East,81,3.6,3.6,57,0.00,,---,0.00,VWS V14.01,2013-09-23 02:52:00,
2013-09-22 22:54:00,53.1,39.6,29.03,ENE,76,0.0,4.0,60,0.00,,---,0.00,VWS V14.01,2013-09-23 02:54:00,
2013-09-22 22:56:00,52.9,39.4,29.03,East,101,3.1,4.0,60,0.00,,---,0.00,VWS V14.01,2013-09-23 02:56:00,
2013-09-22 22:57:00,52.9,39.8,29.03,East,89,4.0,4.0,61,0.00,,---,0.00,VWS V14.01,2013-09-23 02:57:00,
2013-09-22 22:58:00,52.2,38.3,28.97,ENE,71,0.0,3.6,59,0.00,,---,0.00,VWS V14.01,2013-09-23 02:58:00,
2013-09-22 22:59:00,52.9,40.2,29.03,East,87,3.6,5.4,62,0.00,,---,0.00,VWS V14.01,2013-09-23 02:59:00,
2013-09-22 23:00:00,52.9,40.2,29.03,East,87,2.7,4.9,62,0.00,,---,0.00,VWS V14.01,2013-09-23 03:00:00,
2013-09-22 23:01:00,52.7,40.5,29.03,ESE,111,0.0,4.5,63,0.00,,---,0.00,VWS V14.01,2013-09-23 03:01:00,
2013-09-22 23:03:00,52.0,38.1,28.97,East,83,0.0,0.0,59,0.00,,---,0.00,VWS V14.01,2013-09-23 03:03:00,
2013-09-22 23:05:00,52.7,40.9,29.03,ESE,102,3.6,4.5,64,0.00,,---,0.00,VWS V14.01,2013-09-23 03:05:00,
2013-09-22 23:06:00,52.7,40.9,29.03,East,100,3.1,4.5,64,0.00,,---,0.00,VWS V14.01,2013-09-23 03:06:00,
2013-09-22 23:08:00,51.8,38.4,28.97,East,80,0.0,3.1,60,0.00,,---,0.00,VWS V14.01,2013-09-23 03:08:00,
2013-09-22 23:10:00,52.7,41.3,29.03,East,90,3.1,4.5,65,0.00,,---,0.00,VWS V14.01,2013-09-23 03:10:00,
2013-09-22 23:11:00,52.7,41.3,29.03,ESE,112,3.6,4.5,65,0.00,,---,0.00,VWS V14.01,2013-09-23 03:11:00,
2013-09-22 23:12:00,52.7,41.3,29.03,ESE,114,6.3,6.3,65,0.00,,---,0.00,VWS V14.01,2013-09-23 03:12:00,
2013-09-22 23:13:00,51.6,38.6,28.97,ENE,72,2.7,3.6,61,0.00,,---,0.00,VWS V14.01,2013-09-23 03:13:00,
2013-09-22 23:15:00,52.7,41.3,29.03,East,89,3.1,6.7,65,0.00,,---,0.00,VWS V14.01,2013-09-23 03:15:00,
2013-09-22 23:16:00,52.7,41.3,29.03,ESE,119,4.0,4.9,65,0.00,,---,0.00,VWS V14.01,2013-09-23 03:16:00,
2013-09-22 23:17:00,52.7,41.3,29.03,ESE,115,4.0,5.4,65,0.00,,---,0.00,VWS V14.01,2013-09-23 03:17:00,
2013-09-22 23:18:00,51.4,38.9,28.97,East,84,2.7,3.6,62,0.00,,---,0.00,VWS V14.01,2013-09-23 03:18:00,
2013-09-22 23:21:00,52.7,41.3,29.03,East,93,3.6,5.8,65,0.00,,---,0.00,VWS V14.01,2013-09-23 03:21:00,
2013-09-22 23:23:00,51.4,39.3,28.97,ENE,77,2.7,3.1,63,0.00,,---,0.00,VWS V14.01,2013-09-23 03:23:00,
2013-09-22 23:27:00,52.5,41.1,29.03,East,99,4.9,6.3,65,0.00,,---,0.00,VWS V14.01,2013-09-23 03:27:00,
2013-09-22 23:28:00,51.3,39.1,28.97,ENE,77,0.0,2.7,63,0.00,,---,0.00,VWS V14.01,2013-09-23 03:28:00,
2013-09-22 23:31:00,52.5,41.1,29.03,East,79,4.5,6.7,65,0.00,,---,0.00,VWS V14.01,2013-09-23 03:31:00,
2013-09-22 23:33:00,51.1,39.3,28.97,ENE,59,4.0,4.5,64,0.00,,---,0.00,VWS V14.01,2013-09-23 03:33:00,
2013-09-22 23:38:00,51.1,39.3,28.97,East,94,2.7,5.4,64,0.00,,---,0.00,VWS V14.01,2013-09-23 03:38:00,
2013-09-22 23:43:00,51.1,39.3,28.97,ESE,111,4.0,4.9,64,0.00,,---,0.00,VWS V14.01,2013-09-23 03:43:00,
2013-09-22 23:48:00,51.1,39.3,28.97,ENE,72,2.7,4.5,64,0.00,,---,0.00,VWS V14.01,2013-09-23 03:48:00,
2013-09-22 23:53:00,50.9,39.2,28.97,ENE,72,4.5,5.4,64,0.00,,---,0.00,VWS V14.01,2013-09-23 03:53:00,
2013-09-22 23:57:00,51.8,41.2,29.03,East,95,4.5,4.5,67,0.00,,---,0.00,VWS V14.01,2013-09-23 03:57:00,
2013-09-22 23:58:00,50.9,39.6,28.97,ENE,74,2.7,4.9,65,0.00,,---,0.00,VWS V14.01,2013-09-23 03:58:00,
2013-09-22 23:59:00,51.6,41.0,29.03,East,88,4.9,4.9,67,0.00,,---,0.00,VWS V14.01,2013-09-23 03:59:00,